sensor_id;sensor_type;location;lat;lon;timestamp;temperature;humidity
41756;DHT22;27435;48.480;9.258;2022-11-18T00:01:35;7.80;99.00
41756;DHT22;27435;48.480;9.258;2022-11-18T00:04:01;7.80;99.00
41756;DHT22;27435;48.480;9.258;2022-11-18T00:06:28;7.90;99.00
41756;DHT22;27435;48.480;9.258;2022-11-18T00:08:54;7.80;99.00
41756;DHT22;27435;48.480;9.258;2022-11-18T00:11:22;7.90;99.00
41756;DHT22;27435;48.480;9.258;2022-11-18T00:14:15;7.80;99.00
41756;DHT22;27435;48.480;9.258;2022-11-18T00:17:05;7.80;99.00
41756;DHT22;27435;48.480;9.258;2022-11-18T00:19:33;7.80;99.00
41756;DHT22;27435;48.480;9.258;2022-11-18T00:21:59;7.80;99.00
41756;DHT22;27435;48.480;9.258;2022-11-18T00:24:26;7.80;99.00
41756;DHT22;27435;48.480;9.258;2022-11-18T00:26:52;7.80;99.00
41756;DHT22;27435;48.480;9.258;2022-11-18T00:29:18;7.80;99.00
41756;DHT22;27435;48.480;9.258;2022-11-18T00:31:44;7.80;99.00
41756;DHT22;27435;48.480;9.258;2022-11-18T00:34:11;7.80;99.00
41756;DHT22;27435;48.480;9.258;2022-11-18T00:36:39;7.80;99.00
41756;DHT22;27435;48.480;9.258;2022-11-18T00:39:04;7.80;99.00
41756;DHT22;27435;48.480;9.258;2022-11-18T00:41:30;7.80;99.00
41756;DHT22;27435;48.480;9.258;2022-11-18T00:44:14;7.80;99.00
41756;DHT22;27435;48.480;9.258;2022-11-18T00:46:40;7.80;99.00
41756;DHT22;27435;48.480;9.258;2022-11-18T00:49:06;7.70;99.00
41756;DHT22;27435;48.480;9.258;2022-11-18T00:51:32;7.70;99.00
41756;DHT22;27435;48.480;9.258;2022-11-18T00:53:57;7.70;99.00
41756;DHT22;27435;48.480;9.258;2022-11-18T00:56:23;7.80;99.00
41756;DHT22;27435;48.480;9.258;2022-11-18T00:58:48;7.90;99.00
41756;DHT22;27435;48.480;9.258;2022-11-18T01:01:14;7.80;99.00
41756;DHT22;27435;48.480;9.258;2022-11-18T01:03:40;7.80;99.00
41756;DHT22;27435;48.480;9.258;2022-11-18T01:06:05;7.80;99.00
41756;DHT22;27435;48.480;9.258;2022-11-18T01:08:31;7.70;99.00
41756;DHT22;27435;48.480;9.258;2022-11-18T01:10:57;7.60;99.00
41756;DHT22;27435;48.480;9.258;2022-11-18T01:13:42;7.50;99.00
41756;DHT22;27435;48.480;9.258;2022-11-18T01:16:08;7.50;99.00
41756;DHT22;27435;48.480;9.258;2022-11-18T01:18:33;7.50;99.00
41756;DHT22;27435;48.480;9.258;2022-11-18T01:21:00;7.50;99.00
41756;DHT22;27435;48.480;9.258;2022-11-18T01:23:27;7.50;99.00
41756;DHT22;27435;48.480;9.258;2022-11-18T01:25:53;7.60;99.00
41756;DHT22;27435;48.480;9.258;2022-11-18T01:28:19;7.60;99.00
41756;DHT22;27435;48.480;9.258;2022-11-18T01:30:45;7.60;99.00
41756;DHT22;27435;48.480;9.258;2022-11-18T01:33:11;7.60;99.00
41756;DHT22;27435;48.480;9.258;2022-11-18T01:35:42;7.60;99.00
41756;DHT22;27435;48.480;9.258;2022-11-18T01:38:10;7.60;99.00
41756;DHT22;27435;48.480;9.258;2022-11-18T01:40:36;7.60;99.00
41756;DHT22;27435;48.480;9.258;2022-11-18T01:43:13;7.70;99.00
41756;DHT22;27435;48.480;9.258;2022-11-18T01:45:41;7.70;99.00
41756;DHT22;27435;48.480;9.258;2022-11-18T01:48:23;7.80;99.00
41756;DHT22;27435;48.480;9.258;2022-11-18T01:51:03;7.80;99.00
41756;DHT22;27435;48.480;9.258;2022-11-18T01:53:37;7.80;99.00
41756;DHT22;27435;48.480;9.258;2022-11-18T01:56:10;7.80;99.00
41756;DHT22;27435;48.480;9.258;2022-11-18T01:58:49;7.70;99.00
41756;DHT22;27435;48.480;9.258;2022-11-18T02:01:16;7.60;99.00
41756;DHT22;27435;48.480;9.258;2022-11-18T02:03:44;7.60;99.00
41756;DHT22;27435;48.480;9.258;2022-11-18T02:06:10;7.60;99.00
41756;DHT22;27435;48.480;9.258;2022-11-18T02:08:37;7.70;99.00
41756;DHT22;27435;48.480;9.258;2022-11-18T02:11:07;7.70;99.00
41756;DHT22;27435;48.480;9.258;2022-11-18T02:13:33;7.50;99.00
41756;DHT22;27435;48.480;9.258;2022-11-18T02:16:05;7.40;99.00
41756;DHT22;27435;48.480;9.258;2022-11-18T02:18:54;7.40;99.00
41756;DHT22;27435;48.480;9.258;2022-11-18T02:24:26;7.30;99.00
41756;DHT22;27435;48.480;9.258;2022-11-18T02:29:56;7.40;99.00
41756;DHT22;27435;48.480;9.258;2022-11-18T02:32:32;7.40;99.00
41756;DHT22;27435;48.480;9.258;2022-11-18T02:35:14;7.50;99.00
41756;DHT22;27435;48.480;9.258;2022-11-18T02:37:55;7.50;99.00
41756;DHT22;27435;48.480;9.258;2022-11-18T02:40:35;7.60;99.00
41756;DHT22;27435;48.480;9.258;2022-11-18T02:43:05;7.60;99.00
41756;DHT22;27435;48.480;9.258;2022-11-18T02:45:32;7.70;99.00
41756;DHT22;27435;48.480;9.258;2022-11-18T02:48:02;7.70;99.00
41756;DHT22;27435;48.480;9.258;2022-11-18T02:50:31;7.60;99.00
41756;DHT22;27435;48.480;9.258;2022-11-18T02:53:01;7.60;99.00
41756;DHT22;27435;48.480;9.258;2022-11-18T02:55:30;7.60;99.00
41756;DHT22;27435;48.480;9.258;2022-11-18T02:57:59;7.70;99.00
41756;DHT22;27435;48.480;9.258;2022-11-18T03:00:25;7.50;99.00
41756;DHT22;27435;48.480;9.258;2022-11-18T03:02:50;7.40;99.00
41756;DHT22;27435;48.480;9.258;2022-11-18T03:07:56;7.40;99.00
41756;DHT22;27435;48.480;9.258;2022-11-18T03:10:31;7.40;99.00
41756;DHT22;27435;48.480;9.258;2022-11-18T03:13:11;7.30;99.00
41756;DHT22;27435;48.480;9.258;2022-11-18T03:15:54;7.20;99.00
41756;DHT22;27435;48.480;9.258;2022-11-18T03:18:32;7.10;99.00
41756;DHT22;27435;48.480;9.258;2022-11-18T03:21:05;7.20;99.00
41756;DHT22;27435;48.480;9.258;2022-11-18T03:23:51;7.20;99.00
41756;DHT22;27435;48.480;9.258;2022-11-18T03:26:33;7.30;99.00
41756;DHT22;27435;48.480;9.258;2022-11-18T03:29:07;7.40;99.00
41756;DHT22;27435;48.480;9.258;2022-11-18T03:31:35;7.40;99.00
41756;DHT22;27435;48.480;9.258;2022-11-18T03:36:44;7.50;99.00
41756;DHT22;27435;48.480;9.258;2022-11-18T03:39:13;7.50;99.00
41756;DHT22;27435;48.480;9.258;2022-11-18T03:41:45;7.40;99.00
41756;DHT22;27435;48.480;9.258;2022-11-18T03:44:33;7.40;99.00
41756;DHT22;27435;48.480;9.258;2022-11-18T03:47:08;7.50;99.00
41756;DHT22;27435;48.480;9.258;2022-11-18T03:49:48;7.50;99.00
41756;DHT22;27435;48.480;9.258;2022-11-18T03:52:25;7.50;99.00
41756;DHT22;27435;48.480;9.258;2022-11-18T03:54:54;7.40;99.00
41756;DHT22;27435;48.480;9.258;2022-11-18T03:57:29;7.40;99.00
41756;DHT22;27435;48.480;9.258;2022-11-18T04:00:08;7.60;99.00
41756;DHT22;27435;48.480;9.258;2022-11-18T04:02:36;7.70;99.00
41756;DHT22;27435;48.480;9.258;2022-11-18T04:05:03;7.60;99.00
41756;DHT22;27435;48.480;9.258;2022-11-18T04:07:34;7.50;99.00
41756;DHT22;27435;48.480;9.258;2022-11-18T04:10:12;7.60;99.00
41756;DHT22;27435;48.480;9.258;2022-11-18T04:15:30;7.60;99.00
41756;DHT22;27435;48.480;9.258;2022-11-18T04:17:56;7.60;99.00
41756;DHT22;27435;48.480;9.258;2022-11-18T04:20:22;7.60;99.00
41756;DHT22;27435;48.480;9.258;2022-11-18T04:22:48;7.50;99.00
41756;DHT22;27435;48.480;9.258;2022-11-18T04:25:14;7.50;99.00
41756;DHT22;27435;48.480;9.258;2022-11-18T04:27:40;7.50;99.00
41756;DHT22;27435;48.480;9.258;2022-11-18T04:30:06;7.50;99.00
41756;DHT22;27435;48.480;9.258;2022-11-18T04:32:33;7.50;99.00
41756;DHT22;27435;48.480;9.258;2022-11-18T04:34:59;7.40;99.00
41756;DHT22;27435;48.480;9.258;2022-11-18T04:37:25;7.20;99.00
41756;DHT22;27435;48.480;9.258;2022-11-18T04:39:50;7.20;99.00
41756;DHT22;27435;48.480;9.258;2022-11-18T04:42:16;7.20;99.00
41756;DHT22;27435;48.480;9.258;2022-11-18T04:44:41;7.30;99.00
41756;DHT22;27435;48.480;9.258;2022-11-18T04:47:07;7.10;99.00
41756;DHT22;27435;48.480;9.258;2022-11-18T04:49:33;7.10;99.00
41756;DHT22;27435;48.480;9.258;2022-11-18T04:52:00;7.10;99.00
41756;DHT22;27435;48.480;9.258;2022-11-18T04:54:26;7.10;99.00
41756;DHT22;27435;48.480;9.258;2022-11-18T04:56:52;7.00;99.00
41756;DHT22;27435;48.480;9.258;2022-11-18T04:59:24;6.90;99.00
41756;DHT22;27435;48.480;9.258;2022-11-18T05:01:50;6.80;99.00
41756;DHT22;27435;48.480;9.258;2022-11-18T05:04:18;6.60;99.00
41756;DHT22;27435;48.480;9.258;2022-11-18T05:06:45;6.50;99.00
41756;DHT22;27435;48.480;9.258;2022-11-18T05:09:11;6.60;99.00
41756;DHT22;27435;48.480;9.258;2022-11-18T05:11:36;6.50;99.00
41756;DHT22;27435;48.480;9.258;2022-11-18T05:14:20;6.40;99.00
41756;DHT22;27435;48.480;9.258;2022-11-18T05:16:46;6.30;99.00
41756;DHT22;27435;48.480;9.258;2022-11-18T05:19:12;6.30;99.00
41756;DHT22;27435;48.480;9.258;2022-11-18T05:21:37;6.40;99.00
41756;DHT22;27435;48.480;9.258;2022-11-18T05:24:03;6.40;99.00
41756;DHT22;27435;48.480;9.258;2022-11-18T05:26:29;6.40;99.00
41756;DHT22;27435;48.480;9.258;2022-11-18T05:28:55;6.40;99.00
41756;DHT22;27435;48.480;9.258;2022-11-18T05:31:21;6.50;99.00
41756;DHT22;27435;48.480;9.258;2022-11-18T05:33:47;6.40;99.00
41756;DHT22;27435;48.480;9.258;2022-11-18T05:36:17;6.50;99.00
41756;DHT22;27435;48.480;9.258;2022-11-18T05:38:43;6.50;99.00
41756;DHT22;27435;48.480;9.258;2022-11-18T05:41:09;6.50;99.00
41756;DHT22;27435;48.480;9.258;2022-11-18T05:43:55;6.50;99.00
41756;DHT22;27435;48.480;9.258;2022-11-18T05:46:21;6.50;99.00
41756;DHT22;27435;48.480;9.258;2022-11-18T05:48:46;6.60;99.00
41756;DHT22;27435;48.480;9.258;2022-11-18T05:51:12;6.70;99.00
41756;DHT22;27435;48.480;9.258;2022-11-18T05:53:37;6.70;99.00
41756;DHT22;27435;48.480;9.258;2022-11-18T05:56:29;6.70;99.00
41756;DHT22;27435;48.480;9.258;2022-11-18T05:58:55;6.70;99.00
41756;DHT22;27435;48.480;9.258;2022-11-18T06:03:56;6.60;99.00
41756;DHT22;27435;48.480;9.258;2022-11-18T06:06:23;6.60;99.00
41756;DHT22;27435;48.480;9.258;2022-11-18T06:08:54;6.60;99.00
41756;DHT22;27435;48.480;9.258;2022-11-18T06:11:21;6.70;99.00
41756;DHT22;27435;48.480;9.258;2022-11-18T06:16:51;6.60;99.00
41756;DHT22;27435;48.480;9.258;2022-11-18T06:19:18;6.70;99.00
41756;DHT22;27435;48.480;9.258;2022-11-18T06:21:44;6.80;99.00
41756;DHT22;27435;48.480;9.258;2022-11-18T06:24:11;6.70;99.00
41756;DHT22;27435;48.480;9.258;2022-11-18T06:26:38;6.70;99.00
41756;DHT22;27435;48.480;9.258;2022-11-18T06:29:05;6.80;99.00
41756;DHT22;27435;48.480;9.258;2022-11-18T06:31:32;6.80;99.00
41756;DHT22;27435;48.480;9.258;2022-11-18T06:33:58;6.70;99.00
41756;DHT22;27435;48.480;9.258;2022-11-18T06:36:23;6.50;99.00
41756;DHT22;27435;48.480;9.258;2022-11-18T06:38:49;6.40;99.00
41756;DHT22;27435;48.480;9.258;2022-11-18T06:41:15;6.30;99.00
41756;DHT22;27435;48.480;9.258;2022-11-18T06:43:40;6.30;99.00
41756;DHT22;27435;48.480;9.258;2022-11-18T06:46:15;6.30;99.00
41756;DHT22;27435;48.480;9.258;2022-11-18T06:48:59;6.30;99.00
41756;DHT22;27435;48.480;9.258;2022-11-18T06:51:25;6.30;99.00
41756;DHT22;27435;48.480;9.258;2022-11-18T06:53:51;6.30;99.00
41756;DHT22;27435;48.480;9.258;2022-11-18T06:56:18;6.40;99.00
41756;DHT22;27435;48.480;9.258;2022-11-18T06:58:45;6.50;99.00
41756;DHT22;27435;48.480;9.258;2022-11-18T07:01:22;6.60;99.00
41756;DHT22;27435;48.480;9.258;2022-11-18T07:03:48;6.70;99.00
41756;DHT22;27435;48.480;9.258;2022-11-18T07:06:17;6.70;99.00
41756;DHT22;27435;48.480;9.258;2022-11-18T07:08:45;6.90;99.00
41756;DHT22;27435;48.480;9.258;2022-11-18T07:11:13;6.80;99.00
41756;DHT22;27435;48.480;9.258;2022-11-18T07:13:41;6.80;99.00
41756;DHT22;27435;48.480;9.258;2022-11-18T07:16:12;6.90;99.00
41756;DHT22;27435;48.480;9.258;2022-11-18T07:18:40;6.90;99.00
41756;DHT22;27435;48.480;9.258;2022-11-18T07:21:12;7.00;99.00
41756;DHT22;27435;48.480;9.258;2022-11-18T07:23:38;7.10;99.00
41756;DHT22;27435;48.480;9.258;2022-11-18T07:26:04;7.10;99.00
41756;DHT22;27435;48.480;9.258;2022-11-18T07:28:30;7.00;99.00
41756;DHT22;27435;48.480;9.258;2022-11-18T07:31:13;7.00;99.00
41756;DHT22;27435;48.480;9.258;2022-11-18T07:33:40;6.90;99.00
41756;DHT22;27435;48.480;9.258;2022-11-18T07:36:15;7.00;99.00
41756;DHT22;27435;48.480;9.258;2022-11-18T07:38:41;7.00;99.00
41756;DHT22;27435;48.480;9.258;2022-11-18T07:43:37;7.00;99.00
41756;DHT22;27435;48.480;9.258;2022-11-18T07:46:16;7.00;99.00
41756;DHT22;27435;48.480;9.258;2022-11-18T07:48:44;6.90;99.00
41756;DHT22;27435;48.480;9.258;2022-11-18T07:51:10;6.90;99.00
41756;DHT22;27435;48.480;9.258;2022-11-18T07:53:36;7.00;99.00
41756;DHT22;27435;48.480;9.258;2022-11-18T07:56:03;7.00;99.00
41756;DHT22;27435;48.480;9.258;2022-11-18T07:58:29;7.00;99.00
41756;DHT22;27435;48.480;9.258;2022-11-18T08:00:55;7.10;99.00
41756;DHT22;27435;48.480;9.258;2022-11-18T08:03:25;7.20;99.00
41756;DHT22;27435;48.480;9.258;2022-11-18T08:06:01;7.20;99.00
41756;DHT22;27435;48.480;9.258;2022-11-18T08:08:27;7.40;99.00
41756;DHT22;27435;48.480;9.258;2022-11-18T08:10:57;7.40;99.00
41756;DHT22;27435;48.480;9.258;2022-11-18T08:13:24;7.40;99.00
41756;DHT22;27435;48.480;9.258;2022-11-18T08:15:50;7.40;99.00
41756;DHT22;27435;48.480;9.258;2022-11-18T08:18:15;7.40;99.00
41756;DHT22;27435;48.480;9.258;2022-11-18T08:20:41;7.30;99.00
41756;DHT22;27435;48.480;9.258;2022-11-18T08:23:07;7.20;99.00
41756;DHT22;27435;48.480;9.258;2022-11-18T08:25:32;7.30;99.00
41756;DHT22;27435;48.480;9.258;2022-11-18T08:27:58;7.20;99.00
41756;DHT22;27435;48.480;9.258;2022-11-18T08:30:24;7.10;99.00
41756;DHT22;27435;48.480;9.258;2022-11-18T08:32:49;7.20;99.00
41756;DHT22;27435;48.480;9.258;2022-11-18T08:35:15;7.20;99.00
41756;DHT22;27435;48.480;9.258;2022-11-18T08:37:41;7.10;99.00
41756;DHT22;27435;48.480;9.258;2022-11-18T08:40:07;7.10;99.00
41756;DHT22;27435;48.480;9.258;2022-11-18T08:42:33;7.10;99.00
41756;DHT22;27435;48.480;9.258;2022-11-18T08:44:59;7.00;99.00
41756;DHT22;27435;48.480;9.258;2022-11-18T08:47:24;7.00;99.00
41756;DHT22;27435;48.480;9.258;2022-11-18T08:49:50;6.90;99.00
41756;DHT22;27435;48.480;9.258;2022-11-18T08:52:16;7.00;99.00
41756;DHT22;27435;48.480;9.258;2022-11-18T08:54:41;7.00;99.00
41756;DHT22;27435;48.480;9.258;2022-11-18T08:57:07;7.00;99.00
41756;DHT22;27435;48.480;9.258;2022-11-18T08:59:33;7.00;99.00
41756;DHT22;27435;48.480;9.258;2022-11-18T09:01:58;7.20;99.00
41756;DHT22;27435;48.480;9.258;2022-11-18T09:04:24;7.30;99.00
41756;DHT22;27435;48.480;9.258;2022-11-18T09:06:49;7.30;99.00
41756;DHT22;27435;48.480;9.258;2022-11-18T09:09:15;7.40;99.00
41756;DHT22;27435;48.480;9.258;2022-11-18T09:11:41;7.40;99.00
41756;DHT22;27435;48.480;9.258;2022-11-18T09:14:09;7.50;99.00
41756;DHT22;27435;48.480;9.258;2022-11-18T09:16:35;7.40;99.00
41756;DHT22;27435;48.480;9.258;2022-11-18T09:19:01;7.40;99.00
41756;DHT22;27435;48.480;9.258;2022-11-18T09:21:26;7.50;99.00
41756;DHT22;27435;48.480;9.258;2022-11-18T09:23:52;7.60;99.00
41756;DHT22;27435;48.480;9.258;2022-11-18T09:26:20;7.50;99.00
41756;DHT22;27435;48.480;9.258;2022-11-18T09:28:47;7.50;99.00
41756;DHT22;27435;48.480;9.258;2022-11-18T09:31:14;7.50;99.00
41756;DHT22;27435;48.480;9.258;2022-11-18T09:33:40;7.50;99.00
41756;DHT22;27435;48.480;9.258;2022-11-18T09:36:17;7.70;99.00
41756;DHT22;27435;48.480;9.258;2022-11-18T09:38:43;7.80;99.00
41756;DHT22;27435;48.480;9.258;2022-11-18T09:46:32;7.70;99.00
41756;DHT22;27435;48.480;9.258;2022-11-18T09:49:07;7.60;99.00
41756;DHT22;27435;48.480;9.258;2022-11-18T09:51:39;7.60;99.00
41756;DHT22;27435;48.480;9.258;2022-11-18T09:54:10;7.60;99.00
41756;DHT22;27435;48.480;9.258;2022-11-18T09:56:39;7.60;99.00
41756;DHT22;27435;48.480;9.258;2022-11-18T09:59:05;7.50;99.00
41756;DHT22;27435;48.480;9.258;2022-11-18T10:01:31;7.50;99.00
41756;DHT22;27435;48.480;9.258;2022-11-18T10:03:57;7.40;99.00
41756;DHT22;27435;48.480;9.258;2022-11-18T10:06:27;7.40;99.00
41756;DHT22;27435;48.480;9.258;2022-11-18T10:11:37;7.50;99.00
41756;DHT22;27435;48.480;9.258;2022-11-18T10:14:18;7.50;99.00
41756;DHT22;27435;48.480;9.258;2022-11-18T10:16:48;7.50;99.00
41756;DHT22;27435;48.480;9.258;2022-11-18T10:24:21;7.60;99.00
41756;DHT22;27435;48.480;9.258;2022-11-18T10:26:54;7.60;99.00
41756;DHT22;27435;48.480;9.258;2022-11-18T10:29:19;7.50;99.00
41756;DHT22;27435;48.480;9.258;2022-11-18T10:34:27;7.40;99.00
41756;DHT22;27435;48.480;9.258;2022-11-18T10:37:05;7.40;99.00
41756;DHT22;27435;48.480;9.258;2022-11-18T10:39:31;7.30;99.00
41756;DHT22;27435;48.480;9.258;2022-11-18T10:42:05;7.40;99.00
41756;DHT22;27435;48.480;9.258;2022-11-18T10:52:57;7.80;99.00
41756;DHT22;27435;48.480;9.258;2022-11-18T10:55:25;7.80;99.00
41756;DHT22;27435;48.480;9.258;2022-11-18T10:57:57;7.80;99.00
41756;DHT22;27435;48.480;9.258;2022-11-18T11:00:37;7.90;99.00
41756;DHT22;27435;48.480;9.258;2022-11-18T11:03:41;7.90;99.00
41756;DHT22;27435;48.480;9.258;2022-11-18T11:06:30;8.00;99.00
41756;DHT22;27435;48.480;9.258;2022-11-18T11:11:36;8.20;99.00
41756;DHT22;27435;48.480;9.258;2022-11-18T11:16:46;8.50;99.00
41756;DHT22;27435;48.480;9.258;2022-11-18T11:19:13;8.40;99.00
41756;DHT22;27435;48.480;9.258;2022-11-18T11:21:42;8.30;99.00
41756;DHT22;27435;48.480;9.258;2022-11-18T11:24:10;8.40;99.00
41756;DHT22;27435;48.480;9.258;2022-11-18T11:29:29;8.40;99.00
41756;DHT22;27435;48.480;9.258;2022-11-18T11:38:04;8.20;99.00
41756;DHT22;27435;48.480;9.258;2022-11-18T11:40:22;8.30;99.00
41756;DHT22;27435;48.480;9.258;2022-11-18T11:43:23;8.30;99.00
41756;DHT22;27435;48.480;9.258;2022-11-18T11:48:56;8.60;99.00
41756;DHT22;27435;48.480;9.258;2022-11-18T11:51:44;8.70;99.00
41756;DHT22;27435;48.480;9.258;2022-11-18T11:57:04;9.00;99.00
41756;DHT22;27435;48.480;9.258;2022-11-18T12:02:56;8.70;99.00
41756;DHT22;27435;48.480;9.258;2022-11-18T12:05:31;8.30;99.00
41756;DHT22;27435;48.480;9.258;2022-11-18T12:08:24;8.40;99.00
41756;DHT22;27435;48.480;9.258;2022-11-18T12:26:42;8.70;99.00
41756;DHT22;27435;48.480;9.258;2022-11-18T12:29:36;8.70;99.00
41756;DHT22;27435;48.480;9.258;2022-11-18T12:32:04;8.60;99.00
41756;DHT22;27435;48.480;9.258;2022-11-18T12:34:40;8.50;99.00
41756;DHT22;27435;48.480;9.258;2022-11-18T12:39:46;8.10;99.00
41756;DHT22;27435;48.480;9.258;2022-11-18T12:42:43;8.00;99.00
41756;DHT22;27435;48.480;9.258;2022-11-18T12:50:55;7.90;99.00
41756;DHT22;27435;48.480;9.258;2022-11-18T12:53:44;8.00;99.00
41756;DHT22;27435;48.480;9.258;2022-11-18T12:58:54;8.10;99.00
41756;DHT22;27435;48.480;9.258;2022-11-18T13:01:25;8.10;99.00
41756;DHT22;27435;48.480;9.258;2022-11-18T13:03:52;8.30;99.00
41756;DHT22;27435;48.480;9.258;2022-11-18T13:06:20;8.30;99.00
41756;DHT22;27435;48.480;9.258;2022-11-18T13:08:57;8.20;99.00
41756;DHT22;27435;48.480;9.258;2022-11-18T13:11:24;8.40;99.00
41756;DHT22;27435;48.480;9.258;2022-11-18T13:14:26;8.50;99.00
41756;DHT22;27435;48.480;9.258;2022-11-18T13:17:38;8.50;99.00
41756;DHT22;27435;48.480;9.258;2022-11-18T13:20:27;8.50;99.00
41756;DHT22;27435;48.480;9.258;2022-11-18T13:22:58;8.50;99.00
41756;DHT22;27435;48.480;9.258;2022-11-18T13:25:43;8.60;99.00
41756;DHT22;27435;48.480;9.258;2022-11-18T13:28:27;8.70;99.00
41756;DHT22;27435;48.480;9.258;2022-11-18T13:33:39;8.90;99.00
41756;DHT22;27435;48.480;9.258;2022-11-18T13:36:22;8.80;99.00
41756;DHT22;27435;48.480;9.258;2022-11-18T13:38:55;8.80;99.00
41756;DHT22;27435;48.480;9.258;2022-11-18T13:41:21;8.80;99.00
41756;DHT22;27435;48.480;9.258;2022-11-18T13:43:49;8.80;99.00
41756;DHT22;27435;48.480;9.258;2022-11-18T13:46:18;8.90;99.00
41756;DHT22;27435;48.480;9.258;2022-11-18T13:48:53;9.00;99.00
41756;DHT22;27435;48.480;9.258;2022-11-18T13:51:21;9.00;99.00
41756;DHT22;27435;48.480;9.258;2022-11-18T13:53:47;9.00;99.00
41756;DHT22;27435;48.480;9.258;2022-11-18T13:56:23;8.80;99.00
41756;DHT22;27435;48.480;9.258;2022-11-18T14:01:34;8.70;99.00
41756;DHT22;27435;48.480;9.258;2022-11-18T14:04:01;8.70;99.00
41756;DHT22;27435;48.480;9.258;2022-11-18T14:06:31;8.70;99.00
41756;DHT22;27435;48.480;9.258;2022-11-18T14:14:32;8.60;99.00
41756;DHT22;27435;48.480;9.258;2022-11-18T14:17:22;8.60;99.00
41756;DHT22;27435;48.480;9.258;2022-11-18T14:19:55;8.60;99.00
41756;DHT22;27435;48.480;9.258;2022-11-18T14:22:25;8.60;99.00
41756;DHT22;27435;48.480;9.258;2022-11-18T14:25:00;8.60;99.00
41756;DHT22;27435;48.480;9.258;2022-11-18T14:27:36;8.60;99.00
41756;DHT22;27435;48.480;9.258;2022-11-18T14:30:30;8.50;99.00
41756;DHT22;27435;48.480;9.258;2022-11-18T14:35:31;8.40;99.00
41756;DHT22;27435;48.480;9.258;2022-11-18T14:37:57;8.50;99.00
41756;DHT22;27435;48.480;9.258;2022-11-18T14:40:22;8.50;99.00
41756;DHT22;27435;48.480;9.258;2022-11-18T14:42:48;8.40;99.00
41756;DHT22;27435;48.480;9.258;2022-11-18T14:45:15;8.30;99.00
41756;DHT22;27435;48.480;9.258;2022-11-18T14:47:41;8.40;99.00
41756;DHT22;27435;48.480;9.258;2022-11-18T14:50:13;8.40;99.00
41756;DHT22;27435;48.480;9.258;2022-11-18T14:52:39;8.50;99.00
41756;DHT22;27435;48.480;9.258;2022-11-18T14:55:05;8.50;99.00
41756;DHT22;27435;48.480;9.258;2022-11-18T14:57:31;8.30;99.00
41756;DHT22;27435;48.480;9.258;2022-11-18T14:59:58;8.20;99.00
41756;DHT22;27435;48.480;9.258;2022-11-18T15:02:23;8.20;99.00
41756;DHT22;27435;48.480;9.258;2022-11-18T15:04:49;8.10;99.00
41756;DHT22;27435;48.480;9.258;2022-11-18T15:07:17;8.00;99.00
41756;DHT22;27435;48.480;9.258;2022-11-18T15:09:42;8.10;99.00
41756;DHT22;27435;48.480;9.258;2022-11-18T15:12:08;8.00;99.00
41756;DHT22;27435;48.480;9.258;2022-11-18T15:14:34;8.10;99.00
41756;DHT22;27435;48.480;9.258;2022-11-18T15:17:00;8.20;99.00
41756;DHT22;27435;48.480;9.258;2022-11-18T15:19:26;8.20;99.00
41756;DHT22;27435;48.480;9.258;2022-11-18T15:21:52;8.20;99.00
41756;DHT22;27435;48.480;9.258;2022-11-18T15:24:18;8.10;99.00
41756;DHT22;27435;48.480;9.258;2022-11-18T15:26:47;8.10;99.00
41756;DHT22;27435;48.480;9.258;2022-11-18T15:29:21;8.10;99.00
41756;DHT22;27435;48.480;9.258;2022-11-18T15:31:47;8.00;99.00
41756;DHT22;27435;48.480;9.258;2022-11-18T15:34:14;8.00;99.00
41756;DHT22;27435;48.480;9.258;2022-11-18T15:36:40;8.00;99.00
41756;DHT22;27435;48.480;9.258;2022-11-18T15:39:05;8.00;99.00
41756;DHT22;27435;48.480;9.258;2022-11-18T15:41:31;7.90;99.00
41756;DHT22;27435;48.480;9.258;2022-11-18T15:43:58;7.90;99.00
41756;DHT22;27435;48.480;9.258;2022-11-18T15:46:26;7.90;99.00
41756;DHT22;27435;48.480;9.258;2022-11-18T15:48:56;7.80;99.00
41756;DHT22;27435;48.480;9.258;2022-11-18T15:51:23;7.70;99.00
41756;DHT22;27435;48.480;9.258;2022-11-18T15:53:48;7.60;99.00
41756;DHT22;27435;48.480;9.258;2022-11-18T15:58:41;7.60;99.00
41756;DHT22;27435;48.480;9.258;2022-11-18T16:01:06;7.60;99.00
41756;DHT22;27435;48.480;9.258;2022-11-18T16:03:36;7.40;99.00
41756;DHT22;27435;48.480;9.258;2022-11-18T16:06:02;7.30;99.00
41756;DHT22;27435;48.480;9.258;2022-11-18T16:08:29;7.20;99.00
41756;DHT22;27435;48.480;9.258;2022-11-18T16:10:56;7.10;99.00
41756;DHT22;27435;48.480;9.258;2022-11-18T16:13:40;7.00;99.00
41756;DHT22;27435;48.480;9.258;2022-11-18T16:16:06;6.90;99.00
41756;DHT22;27435;48.480;9.258;2022-11-18T16:18:32;6.90;99.00
41756;DHT22;27435;48.480;9.258;2022-11-18T16:20:59;6.90;99.00
41756;DHT22;27435;48.480;9.258;2022-11-18T16:23:25;6.90;99.00
41756;DHT22;27435;48.480;9.258;2022-11-18T16:25:54;6.80;99.00
41756;DHT22;27435;48.480;9.258;2022-11-18T16:28:20;6.70;99.00
41756;DHT22;27435;48.480;9.258;2022-11-18T16:30:49;6.60;99.00
41756;DHT22;27435;48.480;9.258;2022-11-18T16:33:33;6.50;99.00
41756;DHT22;27435;48.480;9.258;2022-11-18T16:35:59;6.60;99.00
41756;DHT22;27435;48.480;9.258;2022-11-18T16:38:24;6.50;99.00
41756;DHT22;27435;48.480;9.258;2022-11-18T16:40:59;6.40;99.00
41756;DHT22;27435;48.480;9.258;2022-11-18T16:43:25;6.30;99.00
41756;DHT22;27435;48.480;9.258;2022-11-18T16:45:54;6.30;99.00
41756;DHT22;27435;48.480;9.258;2022-11-18T16:48:20;6.30;99.00
41756;DHT22;27435;48.480;9.258;2022-11-18T16:51:39;6.40;99.00
41756;DHT22;27435;48.480;9.258;2022-11-18T16:54:02;6.40;99.00
41756;DHT22;27435;48.480;9.258;2022-11-18T16:56:30;6.40;99.00
41756;DHT22;27435;48.480;9.258;2022-11-18T16:58:57;6.40;99.00
41756;DHT22;27435;48.480;9.258;2022-11-18T17:01:23;6.50;99.00
41756;DHT22;27435;48.480;9.258;2022-11-18T17:03:50;6.50;99.00
41756;DHT22;27435;48.480;9.258;2022-11-18T17:06:16;6.60;99.00
41756;DHT22;27435;48.480;9.258;2022-11-18T17:08:42;6.60;99.00
41756;DHT22;27435;48.480;9.258;2022-11-18T17:11:09;6.60;99.00
41756;DHT22;27435;48.480;9.258;2022-11-18T17:13:36;6.60;99.00
41756;DHT22;27435;48.480;9.258;2022-11-18T17:16:13;6.70;99.00
41756;DHT22;27435;48.480;9.258;2022-11-18T17:18:39;6.90;99.00
41756;DHT22;27435;48.480;9.258;2022-11-18T17:21:07;6.70;99.00
41756;DHT22;27435;48.480;9.258;2022-11-18T17:23:34;6.70;99.00
41756;DHT22;27435;48.480;9.258;2022-11-18T17:26:00;6.70;99.00
41756;DHT22;27435;48.480;9.258;2022-11-18T17:28:27;6.70;99.00
41756;DHT22;27435;48.480;9.258;2022-11-18T17:30:53;6.70;99.00
41756;DHT22;27435;48.480;9.258;2022-11-18T17:33:19;6.70;99.00
41756;DHT22;27435;48.480;9.258;2022-11-18T17:35:44;6.60;99.00
41756;DHT22;27435;48.480;9.258;2022-11-18T17:38:10;6.60;99.00
41756;DHT22;27435;48.480;9.258;2022-11-18T17:40:36;6.60;99.00
41756;DHT22;27435;48.480;9.258;2022-11-18T17:43:01;6.60;99.00
41756;DHT22;27435;48.480;9.258;2022-11-18T17:45:30;6.70;99.00
41756;DHT22;27435;48.480;9.258;2022-11-18T17:47:55;6.70;99.00
41756;DHT22;27435;48.480;9.258;2022-11-18T17:50:21;6.70;99.00
41756;DHT22;27435;48.480;9.258;2022-11-18T17:52:47;6.80;99.00
41756;DHT22;27435;48.480;9.258;2022-11-18T17:55:13;6.80;99.00